createdAt,value
2022-12-19T00:00:15.238Z,25.20
2022-12-19T00:01:13.754Z,27.60
2022-12-19T00:02:14.788Z,27.29
2022-12-19T00:03:13.542Z,27.79
2022-12-19T00:04:14.604Z,25.89
2022-12-19T00:05:13.837Z,24.39
2022-12-19T00:06:13.836Z,23.29
2022-12-19T00:07:13.723Z,25.29
2022-12-19T00:08:17.366Z,24
2022-12-19T00:09:14.458Z,23.89
2022-12-19T00:10:13.447Z,24.70
2022-12-19T00:12:19.045Z,25.10
2022-12-19T00:13:13.468Z,25.60
2022-12-19T00:14:13.483Z,26.79
2022-12-19T00:15:14.138Z,25.10
2022-12-19T00:16:13.466Z,25
2022-12-19T00:17:14.023Z,25.20
2022-12-19T00:18:13.451Z,24.39
2022-12-19T00:19:13.634Z,27.29
2022-12-19T00:20:16.600Z,26.89
2022-12-19T00:21:14.388Z,25.5
2022-12-19T00:22:13.286Z,23.60
2022-12-19T00:23:13.523Z,25.60
2022-12-19T00:24:21.083Z,26.5
2022-12-19T00:25:14.170Z,24.89
2022-12-19T00:26:13.528Z,24.79
2022-12-19T00:27:13.778Z,26.39
2022-12-19T00:28:13.772Z,26.29
2022-12-19T00:29:14.583Z,24
2022-12-19T00:30:14.813Z,25
2022-12-19T00:31:13.043Z,26
2022-12-19T00:32:13.404Z,25
2022-12-19T00:33:13.265Z,24.39
2022-12-19T00:35:13.312Z,27
2022-12-19T00:36:13.557Z,26.10
2022-12-19T00:37:13.392Z,26.70
2022-12-19T00:38:13.359Z,25.60
2022-12-19T00:39:13.834Z,24.29
2022-12-19T00:40:14.345Z,26.70
2022-12-19T00:41:13.656Z,25.70
2022-12-19T00:42:13.654Z,25.79
2022-12-19T00:43:14.003Z,26.20
2022-12-19T00:44:13.016Z,26.5
2022-12-19T00:45:13.148Z,24.60
2022-12-19T00:46:13.231Z,25.5
2022-12-19T00:47:13.743Z,28.20
2022-12-19T00:48:14.149Z,26.10
2022-12-19T00:49:14.232Z,27.89
2022-12-19T00:50:13.658Z,24.20
2022-12-19T00:51:13.657Z,26.10
2022-12-19T00:52:13.946Z,28.10
2022-12-19T00:53:14.372Z,25.70
2022-12-19T00:54:13.207Z,29.5
2022-12-19T00:55:18.714Z,26.29
2022-12-19T00:56:13.737Z,25.39
2022-12-19T00:57:14.027Z,27
2022-12-19T00:58:13.328Z,25.70
2022-12-19T00:59:13.589Z,25.39
2022-12-19T01:00:14.112Z,26.39
2022-12-19T01:01:16.076Z,26.10
2022-12-19T01:02:14.167Z,25.39
2022-12-19T01:04:30.805Z,25.70
2022-12-19T01:05:13.336Z,26
2022-12-19T01:06:13.482Z,25.39
2022-12-19T01:07:13.336Z,27.29
2022-12-19T01:08:13.740Z,26.70
2022-12-19T01:09:13.673Z,27.5
2022-12-19T01:10:13.901Z,25.5
2022-12-19T01:11:13.205Z,22.60
2022-12-19T01:12:13.894Z,24.29
2022-12-19T01:13:14.097Z,24
2022-12-19T01:14:17.381Z,26.70
2022-12-19T01:15:14.188Z,25.20
2022-12-19T01:16:13.183Z,25.79
2022-12-19T01:17:13.809Z,25.20
2022-12-19T01:18:13.929Z,26.29
2022-12-19T01:19:14.195Z,25
2022-12-19T01:20:13.658Z,25.29
2022-12-19T01:21:14.228Z,24.29
2022-12-19T01:22:13.531Z,23.79
2022-12-19T01:23:13.097Z,23.60
2022-12-19T01:24:13.667Z,25.79
2022-12-19T01:25:14.344Z,23.39
2022-12-19T01:26:13.215Z,26.10
2022-12-19T01:27:13.419Z,24.70
2022-12-19T01:28:13.707Z,23.79
2022-12-19T01:29:14.026Z,24
2022-12-19T01:30:14.328Z,25
2022-12-19T01:31:13.879Z,25.20
2022-12-19T01:32:14.107Z,25
2022-12-19T01:33:13.544Z,27.29
2022-12-19T01:34:13.846Z,28.70
2022-12-19T01:35:21.141Z,29.20
2022-12-19T01:36:13.217Z,28.20
2022-12-19T01:37:13.325Z,27.70
2022-12-19T01:38:13.193Z,25.60
2022-12-19T01:40:13.454Z,23.5
2022-12-19T01:41:13.603Z,27.5
2022-12-19T01:42:14.061Z,23.79
2022-12-19T01:43:14.558Z,23.10
2022-12-19T01:44:14.091Z,25.5
2022-12-19T01:45:14.065Z,24.29
2022-12-19T01:46:13.320Z,25.20
2022-12-19T01:47:14.150Z,24.70
2022-12-19T01:48:13.217Z,23.29
2022-12-19T01:49:13.138Z,25.79
2022-12-19T01:50:13.773Z,23.20
2022-12-19T01:51:14.156Z,24.79
2022-12-19T01:52:20.775Z,24.5
2022-12-19T01:53:13.630Z,23.70
2022-12-19T01:54:13.731Z,23.39
2022-12-19T01:55:14.366Z,23.89
2022-12-19T01:56:13.982Z,26.10
2022-12-19T01:57:13.362Z,24.20
2022-12-19T01:58:13.426Z,24.39
2022-12-19T01:59:13.246Z,24.70
2022-12-19T02:00:14.521Z,24.39
2022-12-19T02:01:14.288Z,27.5
2022-12-19T02:02:13.583Z,24.5
2022-12-19T02:03:13.983Z,25.70
2022-12-19T02:04:13.795Z,22.89
2022-12-19T02:05:14.333Z,22.39
2022-12-19T02:06:13.484Z,24
2022-12-19T02:07:16.230Z,24.5
2022-12-19T02:08:13.874Z,24.39
2022-12-19T02:09:13.461Z,24.89
2022-12-19T02:11:13.571Z,22.79
2022-12-19T02:12:13.886Z,23.79
2022-12-19T02:13:13.976Z,24.10
2022-12-19T02:14:13.308Z,23
2022-12-19T02:15:14.256Z,23.10
2022-12-19T02:16:13.396Z,23.20
2022-12-19T02:17:14.106Z,22
2022-12-19T02:18:13.131Z,22.5
2022-12-19T02:19:13.370Z,27.20
2022-12-19T02:20:18.764Z,23.89
2022-12-19T02:21:13.998Z,23.39
2022-12-19T02:22:19.158Z,22.29
2022-12-19T02:23:14.200Z,22.89
2022-12-19T02:24:13.580Z,22.20
2022-12-19T02:25:14.022Z,24.5
2022-12-19T02:26:13.056Z,23.60
2022-12-19T02:27:13.632Z,23.29
2022-12-19T02:28:13.730Z,25.89
2022-12-19T02:29:13.192Z,23
2022-12-19T02:30:14.041Z,23.20
2022-12-19T02:31:17.554Z,25
2022-12-19T02:32:13.310Z,22.20
2022-12-19T02:34:14.061Z,23.79
2022-12-19T02:35:13.695Z,23.89
2022-12-19T02:36:13.458Z,22.39
2022-12-19T02:37:14.019Z,21.5
2022-12-19T02:38:13.521Z,22.60
2022-12-19T02:39:14.050Z,23
2022-12-19T02:40:13.369Z,23.39
2022-12-19T02:41:13.777Z,22.10
2022-12-19T02:42:13.676Z,21
2022-12-19T02:43:14.038Z,21.10
2022-12-19T02:44:14.201Z,24.29
2022-12-19T02:45:13.669Z,24
2022-12-19T02:46:13.260Z,23.39
2022-12-19T02:47:14.197Z,23.20
2022-12-19T02:48:17.675Z,21.39
2022-12-19T02:49:15.633Z,22.20
2022-12-19T02:50:13.718Z,23
2022-12-19T02:51:13.599Z,22.39
2022-12-19T02:52:13.842Z,24.60
2022-12-19T02:53:14.130Z,20.5
2022-12-19T02:54:13.224Z,24
2022-12-19T02:55:13.669Z,21.70
2022-12-19T02:56:13.771Z,23
2022-12-19T02:58:13.414Z,22.60
2022-12-19T02:59:13.424Z,21.5
2022-12-19T03:00:14.591Z,21.70
2022-12-19T03:01:14.621Z,22.39
2022-12-19T03:02:13.870Z,22.29
2022-12-19T03:03:13.289Z,21.70
2022-12-19T03:04:14.192Z,20.29
2022-12-19T03:05:13.629Z,22.89
2022-12-19T03:06:13.647Z,21.29
2022-12-19T03:07:13.791Z,22.60
2022-12-19T03:08:12.998Z,21.29
2022-12-19T03:09:13.357Z,20.60
2022-12-19T03:10:13.829Z,19.79
2022-12-19T03:11:13.919Z,21.29
2022-12-19T03:12:17.264Z,20.5
2022-12-19T03:13:13.954Z,23
2022-12-19T03:14:14.113Z,22.20
2022-12-19T03:15:13.617Z,21.5
2022-12-19T03:16:13.664Z,23.10
2022-12-19T03:17:13.877Z,21.20
2022-12-19T03:18:13.696Z,20.20
2022-12-19T03:19:13.873Z,23.39
2022-12-19T03:20:13.402Z,23
2022-12-19T03:21:14.179Z,20.79
2022-12-19T03:22:13.502Z,23.70
2022-12-19T03:23:13.367Z,20.70
2022-12-19T03:24:13.570Z,21.10
2022-12-19T03:25:14.003Z,22.89
2022-12-19T03:26:13.328Z,20.10
2022-12-19T03:27:13.914Z,20.70
2022-12-19T03:28:13.025Z,21.10
2022-12-19T03:29:13.388Z,20.10
2022-12-19T03:30:13.672Z,21.60
2022-12-19T03:31:13.828Z,22
2022-12-19T03:32:13.312Z,20.70
2022-12-19T03:33:13.573Z,20.79
2022-12-19T03:34:13.932Z,19.89
2022-12-19T03:35:13.186Z,20.29
2022-12-19T03:36:13.538Z,22.10
2022-12-19T03:37:14.018Z,20.89
2022-12-19T03:38:13.260Z,21
2022-12-19T03:39:13.576Z,20.70
2022-12-19T03:40:13.840Z,20.10
2022-12-19T03:41:14.184Z,21.29
2022-12-19T03:42:13.244Z,20.60
2022-12-19T03:43:13.743Z,19.60
2022-12-19T03:44:13.458Z,20.10
2022-12-19T03:45:13.992Z,21.20
2022-12-19T03:46:13.038Z,19.89
2022-12-19T03:47:13.493Z,21.10
2022-12-19T03:48:13.587Z,20.39
2022-12-19T03:49:13.802Z,19.79
2022-12-19T03:50:14.231Z,20.70
2022-12-19T03:51:13.883Z,20.5
2022-12-19T03:52:13.070Z,19.89
2022-12-19T03:53:13.388Z,20.5
2022-12-19T03:54:13.636Z,19.70
2022-12-19T03:55:13.200Z,19.29
2022-12-19T03:56:13.562Z,20.39
2022-12-19T03:57:13.850Z,19.79
2022-12-19T03:58:14.104Z,20.70
2022-12-19T03:59:13.299Z,21.5
2022-12-19T04:00:14.253Z,19.89
2022-12-19T04:01:13.917Z,20.10
2022-12-19T04:02:13.530Z,19.89
2022-12-19T04:03:14.232Z,20.89
2022-12-19T04:04:13.661Z,19.39
2022-12-19T04:05:14.082Z,20.60
2022-12-19T04:06:13.397Z,18.89
2022-12-19T04:07:13.976Z,19.70
2022-12-19T04:08:14.219Z,19.5
2022-12-19T04:09:17.948Z,21.20
2022-12-19T04:10:14.305Z,18.89
2022-12-19T04:11:13.642Z,19.20
2022-12-19T04:12:14.152Z,20.70
2022-12-19T04:13:13.230Z,19.79
2022-12-19T04:14:13.271Z,21.10
2022-12-19T04:15:13.817Z,20.29
2022-12-19T04:16:14.310Z,19
2022-12-19T04:17:13.448Z,20.60
2022-12-19T04:18:14.184Z,18.79
2022-12-19T04:19:13.327Z,20.60
2022-12-19T04:20:14.023Z,20.10
2022-12-19T04:21:13.535Z,19.5
2022-12-19T04:22:13.964Z,20
2022-12-19T04:23:12.936Z,20.10
2022-12-19T04:24:13.430Z,19.60
2022-12-19T04:25:14.290Z,19.20
2022-12-19T04:26:13.419Z,20.20
2022-12-19T04:27:13.838Z,19.79
2022-12-19T04:28:13.105Z,19.20
2022-12-19T04:29:13.176Z,20.79
2022-12-19T04:30:13.780Z,19
2022-12-19T04:31:14.017Z,19.5
2022-12-19T04:32:13.217Z,19.60
2022-12-19T04:33:13.223Z,18.29
2022-12-19T04:34:13.453Z,19.29
2022-12-19T04:35:14.153Z,18.89
2022-12-19T04:36:13.333Z,19.39
2022-12-19T04:37:13.845Z,19.20
2022-12-19T04:38:14.176Z,18
2022-12-19T04:39:13.306Z,17.60
2022-12-19T04:40:13.420Z,19
2022-12-19T04:41:13.938Z,17.89
2022-12-19T04:42:13.400Z,17.20
2022-12-19T04:43:13.418Z,16.5
2022-12-19T04:44:13.852Z,17.89
2022-12-19T04:45:13.632Z,16
2022-12-19T04:46:14.073Z,17.10
2022-12-19T04:47:13.875Z,17
2022-12-19T04:48:13.974Z,15.80
2022-12-19T04:49:13.315Z,16.29
2022-12-19T04:50:13.654Z,14.69
2022-12-19T04:51:14.059Z,14.80
2022-12-19T04:52:14.091Z,15
2022-12-19T04:53:13.770Z,14.30
2022-12-19T04:54:13.816Z,14.39
2022-12-19T04:55:14.393Z,13.39
2022-12-19T04:56:13.555Z,14.80
2022-12-19T04:57:21.829Z,13.39
2022-12-19T04:58:17.636Z,12.89
2022-12-19T04:59:13.496Z,12.80
2022-12-19T05:00:14.623Z,13.30
2022-12-19T05:01:14.445Z,13.89
2022-12-19T05:02:14.322Z,15.19
2022-12-19T05:03:21.874Z,13.10
2022-12-19T05:04:14.221Z,12.80
2022-12-19T05:05:13.547Z,12.60
2022-12-19T05:06:13.607Z,12.30
2022-12-19T05:07:14.052Z,11.89
2022-12-19T05:08:13.194Z,14.30
2022-12-19T05:09:13.646Z,11.89
2022-12-19T05:10:14.421Z,13.5
2022-12-19T05:11:19.198Z,14
2022-12-19T05:12:13.807Z,14.19
2022-12-19T05:13:14.090Z,12.60
2022-12-19T05:14:13.469Z,14.30
2022-12-19T05:15:27.937Z,13.80
2022-12-19T05:16:13.300Z,12.80
2022-12-19T05:17:14.034Z,13.19
2022-12-19T05:18:14.011Z,13.39
2022-12-19T05:19:14.676Z,12.5
2022-12-19T05:20:14.118Z,12.10
2022-12-19T05:21:13.366Z,13.5
2022-12-19T05:22:13.586Z,13
2022-12-19T05:23:17.898Z,11.89
2022-12-19T05:24:13.424Z,12.19
2022-12-19T05:25:14.469Z,12.5
2022-12-19T05:26:13.874Z,14
2022-12-19T05:27:14.168Z,13.10
2022-12-19T05:28:13.352Z,13.39
2022-12-19T05:29:13.769Z,13.89
2022-12-19T05:30:14.177Z,13.60
2022-12-19T05:31:13.206Z,14.10
2022-12-19T05:32:13.828Z,13.30
2022-12-19T05:33:13.100Z,13.10
2022-12-19T05:34:14.083Z,12.89
2022-12-19T05:35:13.704Z,13.19
2022-12-19T05:36:13.810Z,13.5
2022-12-19T05:37:13.227Z,14.5
2022-12-19T05:38:13.502Z,12
2022-12-19T05:39:13.176Z,12.5
2022-12-19T05:40:13.481Z,13.30
2022-12-19T05:41:13.773Z,13.80
2022-12-19T05:42:14.033Z,15.80
2022-12-19T05:43:13.400Z,13.80
2022-12-19T05:44:14.072Z,14.30
2022-12-19T05:45:13.222Z,15
2022-12-19T05:46:13.350Z,13.89
2022-12-19T05:47:13.562Z,13.69
2022-12-19T05:48:13.974Z,13.60
2022-12-19T05:50:14.194Z,13.10
2022-12-19T05:51:13.418Z,13.5
2022-12-19T05:52:13.498Z,13.30
2022-12-19T05:53:14.232Z,12
2022-12-19T05:54:13.940Z,13.60
2022-12-19T05:55:14.480Z,14
2022-12-19T05:56:13.707Z,11.60
2022-12-19T05:57:13.655Z,11.19
2022-12-19T05:58:13.466Z,11.89
2022-12-19T05:59:13.852Z,12.60
2022-12-19T06:00:14.267Z,11.89
2022-12-19T06:01:14.716Z,11.5
2022-12-19T06:02:13.861Z,10.5
2022-12-19T06:03:14.291Z,10.89
2022-12-19T06:05:15.170Z,10.30
2022-12-19T06:06:14.324Z,10.69
2022-12-19T06:07:19.328Z,10.89
2022-12-19T06:08:13.926Z,10.60
2022-12-19T06:09:14.456Z,10.80
2022-12-19T06:10:13.918Z,10.30
2022-12-19T06:11:13.480Z,11.19
2022-12-19T06:12:13.660Z,10.5
2022-12-19T06:13:13.663Z,9.800
2022-12-19T06:14:13.316Z,10.39
2022-12-19T06:15:14.815Z,11.19
2022-12-19T06:16:14.250Z,10.80
2022-12-19T06:17:14.701Z,11.19
2022-12-19T06:18:13.465Z,11.89
2022-12-19T06:19:14.331Z,10.5
2022-12-19T06:20:14.037Z,10.80
2022-12-19T06:21:13.944Z,10.39
2022-12-19T06:22:13.608Z,11
2022-12-19T06:23:13.950Z,9.899
2022-12-19T06:24:13.651Z,11.5
2022-12-19T06:25:13.812Z,11.10
2022-12-19T06:26:19.130Z,10.5
2022-12-19T06:27:14.020Z,11.5
2022-12-19T06:29:13.313Z,11.10
2022-12-19T06:30:14.084Z,11.89
2022-12-19T06:31:13.961Z,11
2022-12-19T06:32:13.466Z,10.60
2022-12-19T06:33:13.942Z,10.39
2022-12-19T06:34:32.981Z,10.19
2022-12-19T06:35:14.394Z,10
2022-12-19T06:36:13.941Z,10.5
2022-12-19T06:37:13.735Z,10.30
2022-12-19T06:38:14.307Z,10.89
2022-12-19T06:39:13.925Z,10.19
2022-12-19T06:40:13.691Z,10.39
2022-12-19T06:41:13.556Z,11
2022-12-19T06:42:14.553Z,11.30
2022-12-19T06:43:14.580Z,10
2022-12-19T06:44:14.155Z,11.60
2022-12-19T06:45:13.999Z,11.30
2022-12-19T06:46:13.469Z,10.5
2022-12-19T06:47:14.039Z,11
2022-12-19T06:48:13.777Z,11.10
2022-12-19T06:50:14.324Z,11.69
2022-12-19T06:51:14.074Z,10.30
2022-12-19T06:52:13.233Z,12
2022-12-19T06:53:14.011Z,12.30
2022-12-19T06:54:13.957Z,11.80
2022-12-19T06:55:13.857Z,11.30
2022-12-19T06:56:12.996Z,11.19
2022-12-19T06:57:14.269Z,10.60
2022-12-19T06:58:13.779Z,11.89
2022-12-19T06:59:13.922Z,10.69
2022-12-19T07:00:14.692Z,12.10
2022-12-19T07:01:13.711Z,10.89
2022-12-19T07:02:14.334Z,11.5
2022-12-19T07:03:14.937Z,10.69
2022-12-19T07:04:14.824Z,11.30
2022-12-19T07:05:13.945Z,10.10
2022-12-19T07:06:14.034Z,11.30
2022-12-19T07:07:14.274Z,12.60
2022-12-19T07:08:14.726Z,11.19
2022-12-19T07:09:13.963Z,9.199
2022-12-19T07:10:19.165Z,10.30
2022-12-19T07:11:14.017Z,11.39
2022-12-19T07:12:19.181Z,10.30
2022-12-19T07:13:14.623Z,10.89
2022-12-19T07:14:13.902Z,11.19
2022-12-19T07:15:13.833Z,10.39
2022-12-19T07:16:14.227Z,10.10
2022-12-19T07:17:15.106Z,10
2022-12-19T07:18:14.092Z,11.30
2022-12-19T07:19:14.164Z,10.89
2022-12-19T07:20:19.622Z,10
2022-12-19T07:21:13.750Z,11.69
2022-12-19T07:22:21.873Z,11
2022-12-19T07:23:13.645Z,11.39
2022-12-19T07:24:14.625Z,11.30
2022-12-19T07:25:14.729Z,10.80
2022-12-19T07:26:13.473Z,11.19
2022-12-19T07:27:14.390Z,10.60
2022-12-19T07:28:21.965Z,10.80
2022-12-19T07:29:13.482Z,13.5
2022-12-19T07:30:14.715Z,9.899
2022-12-19T07:31:14.722Z,10
2022-12-19T07:32:13.587Z,10.60
2022-12-19T07:33:19.692Z,10.39
2022-12-19T07:34:13.576Z,10
2022-12-19T07:35:14.661Z,10.30
2022-12-19T07:36:14.294Z,12
2022-12-19T07:37:13.981Z,10.39
2022-12-19T07:38:13.516Z,10.19
2022-12-19T07:39:14.101Z,10.80
2022-12-19T07:40:13.828Z,9.800
2022-12-19T07:41:13.855Z,10.10
2022-12-19T07:42:13.676Z,10.60
2022-12-19T07:43:14.233Z,10.10
2022-12-19T07:44:13.948Z,10
2022-12-19T07:45:14.089Z,10.10
2022-12-19T07:46:13.570Z,8.5
2022-12-19T07:47:13.597Z,9.600
2022-12-19T07:48:14.779Z,10.19
2022-12-19T07:49:18.225Z,10
2022-12-19T07:50:14.712Z,10.30
2022-12-19T07:51:13.919Z,8.699
2022-12-19T07:52:13.633Z,10.10
2022-12-19T07:53:13.603Z,9.5
2022-12-19T07:54:14.406Z,11.60
2022-12-19T07:55:14.343Z,9.699
2022-12-19T07:56:14.047Z,11.10
2022-12-19T07:57:13.867Z,10.5
2022-12-19T07:58:13.229Z,10.69
2022-12-19T07:59:14.484Z,11.39
2022-12-19T08:00:15.019Z,10.60
2022-12-19T08:01:14.126Z,11.19
2022-12-19T08:02:14.377Z,10.39
2022-12-19T08:03:14.643Z,10.5
2022-12-19T08:04:13.899Z,10.80
2022-12-19T08:05:14.314Z,10
2022-12-19T08:06:14.613Z,10.69
2022-12-19T08:07:14.885Z,10.10
2022-12-19T08:08:13.535Z,9.399
2022-12-19T08:09:14.510Z,9.800
2022-12-19T08:10:14.280Z,9.399
2022-12-19T08:11:14.433Z,9.5
2022-12-19T08:12:14.727Z,10.89
2022-12-19T08:13:13.887Z,11.19
2022-12-19T08:14:14.212Z,10.89
2022-12-19T08:15:15.077Z,9.600
2022-12-19T08:16:14.251Z,9.899
2022-12-19T08:17:21.573Z,10.69
2022-12-19T08:18:13.615Z,8.699
2022-12-19T08:19:14.140Z,10.30
2022-12-19T08:20:14.299Z,10.39
2022-12-19T08:23:13.754Z,9.699
2022-12-19T08:24:13.709Z,9.600
2022-12-19T08:25:13.815Z,10.60
2022-12-19T08:26:14.236Z,10
2022-12-19T08:27:14.378Z,11
2022-12-19T08:28:14.562Z,10.69
2022-12-19T08:29:14.436Z,11.30
2022-12-19T08:30:14.884Z,10.30
2022-12-19T08:31:13.731Z,11.69
2022-12-19T08:32:20.225Z,10.5
2022-12-19T08:33:14.087Z,11.89
2022-12-19T08:34:13.603Z,9.899
2022-12-19T08:35:14.136Z,11.89
2022-12-19T08:36:14.321Z,10.60
2022-12-19T08:37:15.305Z,11.39
2022-12-19T08:38:15.534Z,9.800
2022-12-19T08:39:14.846Z,11.69
2022-12-19T08:40:15.053Z,12.10
2022-12-19T08:41:15.213Z,11.10
2022-12-19T08:42:14.048Z,10.89
2022-12-19T08:43:14.952Z,9.199
2022-12-19T08:44:15.357Z,10.19
2022-12-19T08:45:14.979Z,10.89
2022-12-19T08:47:14.916Z,9.600
2022-12-19T08:48:15.046Z,10.19
2022-12-19T08:49:13.754Z,9.899
2022-12-19T08:50:14.450Z,10.5
2022-12-19T08:51:13.967Z,10.60
2022-12-19T08:52:14.301Z,9.699
2022-12-19T08:53:14.396Z,9.899
2022-12-19T08:54:14.438Z,9.5
2022-12-19T08:55:13.840Z,10.30
2022-12-19T08:56:13.600Z,10.19
2022-12-19T08:57:13.826Z,9.800
2022-12-19T08:58:14.318Z,10.30
2022-12-19T08:59:15.886Z,9.699
2022-12-19T09:00:15.295Z,10.69
2022-12-19T09:01:14.792Z,9.399
2022-12-19T09:02:13.742Z,9.300
2022-12-19T09:03:13.855Z,9.800
2022-12-19T09:06:05.259Z,8.800
2022-12-19T09:06:25.560Z,8.600
2022-12-19T09:07:15.243Z,9.899
2022-12-19T09:08:13.535Z,9.800
2022-12-19T09:09:14.877Z,9.5
2022-12-19T09:10:13.973Z,9.899
2022-12-19T09:11:14.515Z,9.399
2022-12-19T09:12:14.516Z,9.899
2022-12-19T09:14:14.524Z,8.600
2022-12-19T09:15:13.873Z,8.800
2022-12-19T09:16:13.867Z,10.30
2022-12-19T09:17:14.148Z,9
2022-12-19T09:18:14.446Z,9.300
2022-12-19T09:19:13.924Z,9.800
2022-12-19T09:20:19.639Z,9.699
2022-12-19T09:21:14.074Z,8.800
2022-12-19T09:22:14.116Z,8.600
2022-12-19T09:23:14.534Z,9.899
2022-12-19T09:24:13.744Z,9.300
2022-12-19T09:25:13.911Z,9.5
2022-12-19T09:26:13.845Z,8.600
2022-12-19T09:28:27.860Z,9.5
2022-12-19T09:29:21.015Z,8.5
2022-12-19T09:30:15.084Z,9.800
2022-12-19T09:31:14.417Z,9.199
2022-12-19T09:32:13.728Z,7.900
2022-12-19T09:33:13.941Z,9.699
2022-12-19T09:34:14.395Z,9.600
2022-12-19T09:35:14.794Z,8.399
2022-12-19T09:36:13.642Z,9.199
2022-12-19T09:37:16.646Z,8.300
2022-12-19T09:38:14.684Z,9.199
2022-12-19T09:39:20.058Z,7.800
2022-12-19T09:40:14.083Z,9.199
2022-12-19T09:41:19.352Z,8.399
2022-12-19T09:42:14.443Z,9.399
2022-12-19T09:43:14.780Z,9.300
2022-12-19T09:44:14.281Z,7.599
2022-12-19T09:45:25.911Z,8.199
2022-12-19T09:46:14.495Z,8.800
2022-12-19T09:47:14.885Z,9
2022-12-19T09:48:23.593Z,8.899
2022-12-19T09:49:14.210Z,8.800
2022-12-19T09:50:14.145Z,9.199
2022-12-19T09:51:13.652Z,9
2022-12-19T09:52:13.768Z,8.100
2022-12-19T09:53:13.624Z,10.10
2022-12-19T09:54:13.496Z,8
2022-12-19T09:55:16.853Z,9.199
2022-12-19T09:56:14.601Z,8.600
2022-12-19T09:58:14.718Z,8.800
2022-12-19T10:00:14.621Z,8.399
2022-12-19T10:01:14.689Z,8.600
2022-12-19T10:02:14.633Z,8.5
2022-12-19T10:04:14.059Z,8.199
2022-12-19T10:05:28.400Z,8.800
2022-12-19T10:06:58.113Z,8.399
2022-12-19T10:08:14.334Z,8.199
2022-12-19T10:12:16.946Z,7.900
2022-12-19T10:12:43.379Z,7.599
2022-12-19T10:12:45.698Z,8
2022-12-19T10:13:16.560Z,7.900
2022-12-19T10:14:13.828Z,8.699
2022-12-19T10:15:16.032Z,9.899
2022-12-19T10:16:14.526Z,8.100
2022-12-19T10:17:24.805Z,8.300
2022-12-19T10:18:16.032Z,8.699
2022-12-19T10:19:15.281Z,8.100
2022-12-19T10:20:15.360Z,8.399
2022-12-19T10:21:15.453Z,8.5
2022-12-19T10:22:18.938Z,8.899
2022-12-19T10:23:14.472Z,7.800
2022-12-19T10:24:15.565Z,8.399
2022-12-19T10:25:14.822Z,8.699
2022-12-19T10:26:14.822Z,8.399
2022-12-19T10:27:14.975Z,9.5
2022-12-19T10:28:14.613Z,8.600
2022-12-19T10:30:14.495Z,8.800
2022-12-19T10:31:20.663Z,9.300
2022-12-19T10:32:14.542Z,8.600
2022-12-19T10:33:20.198Z,9
2022-12-19T10:34:15.380Z,8.699
2022-12-19T10:35:14.173Z,8.600
2022-12-19T10:36:13.993Z,8.899
2022-12-19T10:37:26.588Z,7.400
2022-12-19T10:38:14.072Z,9.899
2022-12-19T10:39:15.344Z,7.900
2022-12-19T10:41:14.828Z,8.699
2022-12-19T10:42:14.699Z,7.900
2022-12-19T10:43:19.129Z,8.5
2022-12-19T10:44:13.518Z,7.699
2022-12-19T10:45:14.924Z,8.199
2022-12-19T10:46:13.755Z,8.800
2022-12-19T10:47:13.852Z,7.400
2022-12-19T10:48:13.820Z,8.699
2022-12-19T10:49:13.929Z,8
2022-12-19T10:50:14.317Z,9.300
2022-12-19T10:51:14.325Z,8.100
2022-12-19T10:52:14.213Z,7.900
2022-12-19T10:53:13.794Z,7.699
2022-12-19T10:54:13.718Z,8.100
2022-12-19T10:55:13.615Z,9.399
2022-12-19T10:56:13.780Z,7.599
2022-12-19T10:57:14.226Z,7.900
2022-12-19T10:58:13.849Z,8.300
2022-12-19T10:59:13.801Z,9
2022-12-19T11:00:14.543Z,8
2022-12-19T11:01:13.838Z,7.599
2022-12-19T11:02:14.203Z,7.099
2022-12-19T11:03:16.786Z,7.699
2022-12-19T11:04:15.197Z,7.900
2022-12-19T11:06:13.788Z,9
2022-12-19T11:07:13.713Z,7.5
2022-12-19T11:08:13.979Z,8.199
2022-12-19T11:09:14.199Z,8
2022-12-19T11:11:26.141Z,8.399
2022-12-19T11:16:38.264Z,7.699
2022-12-19T11:18:51.171Z,7.800
2022-12-19T11:19:15.754Z,7.800
2022-12-19T11:19:45.189Z,9.100
2022-12-19T11:21:58.855Z,7.5
2022-12-19T11:23:54.189Z,7.599
2022-12-19T11:27:51.278Z,7.900
2022-12-19T11:29:19.697Z,8.600
2022-12-19T11:29:30.743Z,7.400
2022-12-19T11:29:32.146Z,6.900
2022-12-19T11:29:34.683Z,7.599
2022-12-19T11:29:37.561Z,7.5
2022-12-19T11:29:37.685Z,6.800
2022-12-19T11:29:38.399Z,7.400
2022-12-19T11:29:40.286Z,8
2022-12-19T11:30:34.368Z,7.400
2022-12-19T11:30:46.771Z,7
2022-12-19T11:30:47.444Z,7.699
2022-12-19T11:31:53.012Z,7.199
2022-12-19T11:32:31.547Z,6.699
2022-12-19T11:32:40.284Z,7.800
2022-12-19T11:33:13.719Z,7.599
2022-12-19T11:35:14.369Z,8.699
2022-12-19T11:36:13.901Z,7.300
2022-12-19T11:37:14.039Z,7.199
2022-12-19T11:38:14.009Z,7.5
2022-12-19T11:39:14.596Z,6.199
2022-12-19T11:40:14.205Z,7.699
2022-12-19T11:41:14.582Z,8.300
2022-12-19T11:42:13.520Z,6.199
2022-12-19T11:43:42.427Z,6.800
2022-12-19T11:44:14.504Z,7.099
2022-12-19T11:45:14.424Z,6.099
2022-12-19T11:46:19.427Z,7
2022-12-19T11:47:13.847Z,7.599
2022-12-19T11:48:13.781Z,7.5
2022-12-19T11:49:14.151Z,6.400
2022-12-19T11:50:14.654Z,6.5
2022-12-19T11:51:14.656Z,6.599
2022-12-19T11:52:36.972Z,6.900
2022-12-19T11:53:18.890Z,5.800
2022-12-19T11:54:14.616Z,6.900
2022-12-19T11:55:15.120Z,7.300
2022-12-19T11:56:16.565Z,6.800
2022-12-19T11:57:13.726Z,7.300
2022-12-19T11:58:13.519Z,7.800
2022-12-19T11:59:13.766Z,7.400
2022-12-19T12:01:14.089Z,6.699
2022-12-19T12:02:14.870Z,7.199
2022-12-19T12:03:14.260Z,6.5
2022-12-19T12:04:14.033Z,7.199
2022-12-19T12:05:14.907Z,7.300
2022-12-19T12:06:13.748Z,5.800
2022-12-19T12:07:39.276Z,7.199
2022-12-19T12:10:17.850Z,5.900
2022-12-19T12:13:14.839Z,6.099
2022-12-19T12:14:53.218Z,6.699
2022-12-19T12:17:01.883Z,7.699
2022-12-19T12:20:43.332Z,6.5
2022-12-19T12:20:51.585Z,7
2022-12-19T12:22:47.328Z,6.5
2022-12-19T12:25:11.488Z,6.099
2022-12-19T12:26:25.935Z,6.800
2022-12-19T12:31:05.688Z,7.599
2022-12-19T12:31:06.028Z,6.800
2022-12-19T12:31:12.321Z,7
2022-12-19T12:31:18.580Z,6.300
2022-12-19T12:31:27.719Z,6.599
2022-12-19T12:31:41.610Z,7
2022-12-19T12:31:41.757Z,7
2022-12-19T12:31:44.252Z,6.800
2022-12-19T12:31:45.129Z,6.099
2022-12-19T12:31:48.338Z,6.599
2022-12-19T12:31:51.725Z,7.5
2022-12-19T12:31:52.361Z,7.300
2022-12-19T12:32:02.058Z,5.800
2022-12-19T12:32:05.580Z,5.800
2022-12-19T12:35:40.782Z,6.300
2022-12-19T12:35:56.945Z,5.900
2022-12-19T12:37:47.868Z,6.599
2022-12-19T12:37:54.133Z,5.800
2022-12-19T12:38:30.401Z,7.599
2022-12-19T12:39:18.327Z,6.400
2022-12-19T12:40:14.105Z,5.900
2022-12-19T12:41:13.731Z,7.199
2022-12-19T12:42:13.519Z,6.400
2022-12-19T12:43:14.796Z,5.300
2022-12-19T12:44:14.131Z,7.400
2022-12-19T12:45:14.561Z,6.199
2022-12-19T12:46:14.420Z,5.800
2022-12-19T12:47:14.088Z,5.300
2022-12-19T12:48:13.968Z,6.5
2022-12-19T12:49:14.314Z,5.699
2022-12-19T12:50:14.206Z,6
2022-12-19T12:51:14.112Z,6.099
2022-12-19T12:52:14.176Z,6
2022-12-19T12:53:14.169Z,5.699
2022-12-19T12:54:14.029Z,6
2022-12-19T12:55:14.161Z,6.099
2022-12-19T12:56:14.193Z,5.300
2022-12-19T12:57:14.940Z,6.099
2022-12-19T12:58:17.051Z,5.5
2022-12-19T12:59:14.834Z,5.900
2022-12-19T13:00:14.938Z,6.199
2022-12-19T13:01:14.619Z,5.300
2022-12-19T13:02:14.366Z,5.900
2022-12-19T13:03:14.431Z,5.400
2022-12-19T13:04:14.657Z,6
2022-12-19T13:05:14.220Z,6.400
2022-12-19T13:06:14.638Z,6.099
2022-12-19T13:07:13.916Z,6.800
2022-12-19T13:08:13.899Z,5.900
2022-12-19T13:09:14.297Z,5.199
2022-12-19T13:10:14.675Z,5.699
2022-12-19T13:11:13.890Z,5.900
2022-12-19T13:12:14.113Z,6
2022-12-19T13:13:15.806Z,6.099
2022-12-19T13:14:14.627Z,7.199
2022-12-19T13:15:13.815Z,6.699
2022-12-19T13:16:13.903Z,6.199
2022-12-19T13:17:14.370Z,5.699
2022-12-19T13:18:14.322Z,5.800
2022-12-19T13:19:19.686Z,5.900
2022-12-19T13:20:14.243Z,5.800
2022-12-19T13:21:15.140Z,5.400
2022-12-19T13:22:14.021Z,5.300
2022-12-19T13:23:13.977Z,5
2022-12-19T13:24:16.346Z,5.699
2022-12-19T13:25:14.889Z,5
2022-12-19T13:26:19.585Z,4.599
2022-12-19T13:27:13.780Z,4.5
2022-12-19T13:29:13.976Z,5.5
2022-12-19T13:30:14.403Z,4.900
2022-12-19T13:31:21.275Z,5.199
2022-12-19T13:33:13.993Z,4.800
2022-12-19T13:34:14.094Z,6.400
2022-12-19T13:37:58.785Z,5.300
2022-12-19T13:39:36.232Z,5.099
2022-12-19T13:39:47.686Z,6.300
2022-12-19T13:39:51.037Z,4.599